sensor_id;sensor_type;location;lat;lon;timestamp;temperature;humidity
15328;DHT22;7764;51.430;6.840;2022-11-21T00:00:21;5.30;99.90
15328;DHT22;7764;51.430;6.840;2022-11-21T00:02:49;5.20;99.90
15328;DHT22;7764;51.430;6.840;2022-11-21T00:05:16;5.20;99.90
15328;DHT22;7764;51.430;6.840;2022-11-21T00:07:43;5.10;99.90
15328;DHT22;7764;51.430;6.840;2022-11-21T00:10:10;5.10;99.90
15328;DHT22;7764;51.430;6.840;2022-11-21T00:12:37;5.10;99.90
15328;DHT22;7764;51.430;6.840;2022-11-21T00:15:05;5.10;99.90
15328;DHT22;7764;51.430;6.840;2022-11-21T00:17:32;5.10;99.90
15328;DHT22;7764;51.430;6.840;2022-11-21T00:20:00;5.00;99.90
15328;DHT22;7764;51.430;6.840;2022-11-21T00:22:26;5.10;99.90
15328;DHT22;7764;51.430;6.840;2022-11-21T00:24:53;5.10;99.90
15328;DHT22;7764;51.430;6.840;2022-11-21T00:27:20;5.10;99.90
15328;DHT22;7764;51.430;6.840;2022-11-21T00:29:47;5.10;99.90
15328;DHT22;7764;51.430;6.840;2022-11-21T00:32:14;5.10;99.90
15328;DHT22;7764;51.430;6.840;2022-11-21T00:34:41;5.10;99.90
15328;DHT22;7764;51.430;6.840;2022-11-21T00:37:09;5.10;99.90
15328;DHT22;7764;51.430;6.840;2022-11-21T00:39:36;5.10;99.90
15328;DHT22;7764;51.430;6.840;2022-11-21T00:42:03;5.10;99.90
15328;DHT22;7764;51.430;6.840;2022-11-21T00:44:29;5.00;99.90
15328;DHT22;7764;51.430;6.840;2022-11-21T00:46:56;5.10;99.90
15328;DHT22;7764;51.430;6.840;2022-11-21T00:49:23;5.10;99.90
15328;DHT22;7764;51.430;6.840;2022-11-21T00:51:50;5.10;99.90
15328;DHT22;7764;51.430;6.840;2022-11-21T00:54:18;5.10;99.90
15328;DHT22;7764;51.430;6.840;2022-11-21T00:56:45;5.10;99.90
15328;DHT22;7764;51.430;6.840;2022-11-21T00:59:11;5.00;99.90
15328;DHT22;7764;51.430;6.840;2022-11-21T01:01:38;5.10;99.90
15328;DHT22;7764;51.430;6.840;2022-11-21T01:04:05;5.00;99.90
15328;DHT22;7764;51.430;6.840;2022-11-21T01:06:32;5.00;99.90
15328;DHT22;7764;51.430;6.840;2022-11-21T01:08:59;5.00;99.90
15328;DHT22;7764;51.430;6.840;2022-11-21T01:11:27;5.00;99.90
15328;DHT22;7764;51.430;6.840;2022-11-21T01:13:54;5.00;99.90
15328;DHT22;7764;51.430;6.840;2022-11-21T01:16:22;5.00;99.90
15328;DHT22;7764;51.430;6.840;2022-11-21T01:18:50;5.00;99.90
15328;DHT22;7764;51.430;6.840;2022-11-21T01:21:19;5.00;99.90
15328;DHT22;7764;51.430;6.840;2022-11-21T01:23:47;5.10;99.90
15328;DHT22;7764;51.430;6.840;2022-11-21T01:26:15;5.10;99.90
15328;DHT22;7764;51.430;6.840;2022-11-21T01:28:44;5.10;99.90
15328;DHT22;7764;51.430;6.840;2022-11-21T01:31:14;5.10;99.90
15328;DHT22;7764;51.430;6.840;2022-11-21T01:33:41;5.10;99.90
15328;DHT22;7764;51.430;6.840;2022-11-21T01:36:10;5.10;99.90
15328;DHT22;7764;51.430;6.840;2022-11-21T01:38:38;5.20;99.90
15328;DHT22;7764;51.430;6.840;2022-11-21T01:41:05;5.10;99.90
15328;DHT22;7764;51.430;6.840;2022-11-21T01:43:33;5.20;99.90
15328;DHT22;7764;51.430;6.840;2022-11-21T01:46:04;5.20;99.90
15328;DHT22;7764;51.430;6.840;2022-11-21T01:48:39;5.10;99.90
15328;DHT22;7764;51.430;6.840;2022-11-21T01:51:11;5.10;99.90
15328;DHT22;7764;51.430;6.840;2022-11-21T01:53:40;5.10;99.90
15328;DHT22;7764;51.430;6.840;2022-11-21T01:56:09;5.10;99.90
15328;DHT22;7764;51.430;6.840;2022-11-21T01:58:37;5.10;99.90
15328;DHT22;7764;51.430;6.840;2022-11-21T02:01:06;5.10;99.90
15328;DHT22;7764;51.430;6.840;2022-11-21T02:03:36;5.10;99.90
15328;DHT22;7764;51.430;6.840;2022-11-21T02:06:04;5.20;99.90
15328;DHT22;7764;51.430;6.840;2022-11-21T02:08:32;5.20;99.90
15328;DHT22;7764;51.430;6.840;2022-11-21T02:11:05;5.20;99.90
15328;DHT22;7764;51.430;6.840;2022-11-21T02:13:35;5.10;99.90
15328;DHT22;7764;51.430;6.840;2022-11-21T02:16:01;5.10;99.90
15328;DHT22;7764;51.430;6.840;2022-11-21T02:18:30;5.10;99.90
15328;DHT22;7764;51.430;6.840;2022-11-21T02:21:02;5.10;99.90
15328;DHT22;7764;51.430;6.840;2022-11-21T02:23:38;5.10;99.90
15328;DHT22;7764;51.430;6.840;2022-11-21T02:26:07;5.10;99.90
15328;DHT22;7764;51.430;6.840;2022-11-21T02:28:34;5.10;99.90
15328;DHT22;7764;51.430;6.840;2022-11-21T02:31:00;5.10;99.90
15328;DHT22;7764;51.430;6.840;2022-11-21T02:33:27;5.00;99.90
15328;DHT22;7764;51.430;6.840;2022-11-21T02:35:55;5.00;99.90
15328;DHT22;7764;51.430;6.840;2022-11-21T02:38:25;5.00;99.90
15328;DHT22;7764;51.430;6.840;2022-11-21T02:41:01;5.00;99.90
15328;DHT22;7764;51.430;6.840;2022-11-21T02:43:35;5.00;99.90
15328;DHT22;7764;51.430;6.840;2022-11-21T02:46:03;5.00;99.90
15328;DHT22;7764;51.430;6.840;2022-11-21T02:48:29;5.00;99.90
15328;DHT22;7764;51.430;6.840;2022-11-21T02:50:56;5.00;99.90
15328;DHT22;7764;51.430;6.840;2022-11-21T02:53:23;5.00;99.90
15328;DHT22;7764;51.430;6.840;2022-11-21T02:55:50;5.00;99.90
15328;DHT22;7764;51.430;6.840;2022-11-21T02:58:17;5.00;99.90
15328;DHT22;7764;51.430;6.840;2022-11-21T03:00:45;4.90;99.90
15328;DHT22;7764;51.430;6.840;2022-11-21T03:03:12;4.90;99.90
15328;DHT22;7764;51.430;6.840;2022-11-21T03:05:39;4.90;99.90
15328;DHT22;7764;51.430;6.840;2022-11-21T03:08:06;4.90;99.90
15328;DHT22;7764;51.430;6.840;2022-11-21T03:10:35;4.90;99.90
15328;DHT22;7764;51.430;6.840;2022-11-21T03:13:02;4.90;99.90
15328;DHT22;7764;51.430;6.840;2022-11-21T03:15:31;4.90;99.90
15328;DHT22;7764;51.430;6.840;2022-11-21T03:18:00;4.90;99.90
15328;DHT22;7764;51.430;6.840;2022-11-21T03:20:28;4.90;99.90
15328;DHT22;7764;51.430;6.840;2022-11-21T03:22:55;4.90;99.90
15328;DHT22;7764;51.430;6.840;2022-11-21T03:25:22;4.90;99.90
15328;DHT22;7764;51.430;6.840;2022-11-21T03:27:50;4.90;99.90
15328;DHT22;7764;51.430;6.840;2022-11-21T03:30:18;4.90;99.90
15328;DHT22;7764;51.430;6.840;2022-11-21T03:32:45;4.90;99.90
15328;DHT22;7764;51.430;6.840;2022-11-21T03:35:13;4.80;99.90
15328;DHT22;7764;51.430;6.840;2022-11-21T03:37:40;4.90;99.90
15328;DHT22;7764;51.430;6.840;2022-11-21T03:40:08;4.90;99.90
15328;DHT22;7764;51.430;6.840;2022-11-21T03:42:35;4.90;99.90
15328;DHT22;7764;51.430;6.840;2022-11-21T03:45:02;4.80;99.90
15328;DHT22;7764;51.430;6.840;2022-11-21T03:47:29;4.80;99.90
15328;DHT22;7764;51.430;6.840;2022-11-21T03:49:56;4.90;99.90
15328;DHT22;7764;51.430;6.840;2022-11-21T03:52:24;4.90;99.90
15328;DHT22;7764;51.430;6.840;2022-11-21T03:54:51;5.00;99.90
15328;DHT22;7764;51.430;6.840;2022-11-21T03:57:17;4.90;99.90
15328;DHT22;7764;51.430;6.840;2022-11-21T03:59:44;4.90;99.90
15328;DHT22;7764;51.430;6.840;2022-11-21T04:02:11;4.90;99.90
15328;DHT22;7764;51.430;6.840;2022-11-21T04:04:38;4.90;99.90
15328;DHT22;7764;51.430;6.840;2022-11-21T04:07:05;5.00;99.90
15328;DHT22;7764;51.430;6.840;2022-11-21T04:09:33;5.10;99.90
15328;DHT22;7764;51.430;6.840;2022-11-21T04:12:00;5.10;99.90
15328;DHT22;7764;51.430;6.840;2022-11-21T04:14:26;5.10;99.90
15328;DHT22;7764;51.430;6.840;2022-11-21T04:16:53;5.10;99.90
15328;DHT22;7764;51.430;6.840;2022-11-21T04:19:20;5.10;99.90
15328;DHT22;7764;51.430;6.840;2022-11-21T04:21:47;5.20;99.90
15328;DHT22;7764;51.430;6.840;2022-11-21T04:24:14;5.10;99.90
15328;DHT22;7764;51.430;6.840;2022-11-21T04:26:42;5.20;99.90
15328;DHT22;7764;51.430;6.840;2022-11-21T04:29:09;5.10;99.90
15328;DHT22;7764;51.430;6.840;2022-11-21T04:31:35;5.00;99.90
15328;DHT22;7764;51.430;6.840;2022-11-21T04:34:02;5.00;99.90
15328;DHT22;7764;51.430;6.840;2022-11-21T04:36:29;5.00;99.90
15328;DHT22;7764;51.430;6.840;2022-11-21T04:38:56;4.90;99.90
15328;DHT22;7764;51.430;6.840;2022-11-21T04:41:23;5.00;99.90
15328;DHT22;7764;51.430;6.840;2022-11-21T04:43:51;5.00;99.90
15328;DHT22;7764;51.430;6.840;2022-11-21T04:46:18;5.00;99.90
15328;DHT22;7764;51.430;6.840;2022-11-21T04:48:45;5.00;99.90
15328;DHT22;7764;51.430;6.840;2022-11-21T04:51:11;4.90;99.90
15328;DHT22;7764;51.430;6.840;2022-11-21T04:53:38;5.00;99.90
15328;DHT22;7764;51.430;6.840;2022-11-21T04:56:06;5.00;99.90
15328;DHT22;7764;51.430;6.840;2022-11-21T04:58:32;4.90;99.90
15328;DHT22;7764;51.430;6.840;2022-11-21T05:01:05;5.00;99.90
15328;DHT22;7764;51.430;6.840;2022-11-21T05:03:33;4.90;99.90
15328;DHT22;7764;51.430;6.840;2022-11-21T05:06:00;5.00;99.90
15328;DHT22;7764;51.430;6.840;2022-11-21T05:08:26;4.90;99.90
15328;DHT22;7764;51.430;6.840;2022-11-21T05:10:53;4.90;99.90
15328;DHT22;7764;51.430;6.840;2022-11-21T05:13:38;5.00;99.90
15328;DHT22;7764;51.430;6.840;2022-11-21T05:16:06;4.90;99.90
15328;DHT22;7764;51.430;6.840;2022-11-21T05:18:34;4.90;99.90
15328;DHT22;7764;51.430;6.840;2022-11-21T05:21:02;4.90;99.90
15328;DHT22;7764;51.430;6.840;2022-11-21T05:23:29;4.90;99.90
15328;DHT22;7764;51.430;6.840;2022-11-21T05:25:56;4.90;99.90
15328;DHT22;7764;51.430;6.840;2022-11-21T05:28:23;4.90;99.90
15328;DHT22;7764;51.430;6.840;2022-11-21T05:30:49;4.90;99.90
15328;DHT22;7764;51.430;6.840;2022-11-21T05:33:18;4.90;99.90
15328;DHT22;7764;51.430;6.840;2022-11-21T05:35:44;4.90;99.90
15328;DHT22;7764;51.430;6.840;2022-11-21T05:38:11;4.90;99.90
15328;DHT22;7764;51.430;6.840;2022-11-21T05:40:38;4.90;99.90
15328;DHT22;7764;51.430;6.840;2022-11-21T05:43:05;5.00;99.90
15328;DHT22;7764;51.430;6.840;2022-11-21T05:45:49;5.00;99.90
15328;DHT22;7764;51.430;6.840;2022-11-21T05:48:18;5.00;99.90
15328;DHT22;7764;51.430;6.840;2022-11-21T05:50:46;4.90;99.90
15328;DHT22;7764;51.430;6.840;2022-11-21T05:53:14;5.00;99.90
15328;DHT22;7764;51.430;6.840;2022-11-21T05:55:41;5.00;99.90
15328;DHT22;7764;51.430;6.840;2022-11-21T05:58:07;5.10;99.90
15328;DHT22;7764;51.430;6.840;2022-11-21T06:00:35;5.00;99.90
15328;DHT22;7764;51.430;6.840;2022-11-21T06:03:02;5.10;99.90
15328;DHT22;7764;51.430;6.840;2022-11-21T06:05:48;5.10;99.90
15328;DHT22;7764;51.430;6.840;2022-11-21T06:08:15;5.10;99.90
15328;DHT22;7764;51.430;6.840;2022-11-21T06:10:42;5.10;99.90
15328;DHT22;7764;51.430;6.840;2022-11-21T06:13:09;5.20;99.90
15328;DHT22;7764;51.430;6.840;2022-11-21T06:15:47;5.20;99.90
15328;DHT22;7764;51.430;6.840;2022-11-21T06:18:15;5.20;99.90
15328;DHT22;7764;51.430;6.840;2022-11-21T06:20:42;5.20;99.90
15328;DHT22;7764;51.430;6.840;2022-11-21T06:23:10;5.30;99.90
15328;DHT22;7764;51.430;6.840;2022-11-21T06:25:37;5.30;99.90
15328;DHT22;7764;51.430;6.840;2022-11-21T06:28:05;5.30;99.90
15328;DHT22;7764;51.430;6.840;2022-11-21T06:30:32;5.20;99.90
15328;DHT22;7764;51.430;6.840;2022-11-21T06:33:01;5.20;99.90
15328;DHT22;7764;51.430;6.840;2022-11-21T06:35:28;5.20;99.90
15328;DHT22;7764;51.430;6.840;2022-11-21T06:37:55;5.30;99.90
15328;DHT22;7764;51.430;6.840;2022-11-21T06:40:25;5.30;99.90
15328;DHT22;7764;51.430;6.840;2022-11-21T06:42:52;5.30;99.90
15328;DHT22;7764;51.430;6.840;2022-11-21T06:45:19;5.40;99.90
15328;DHT22;7764;51.430;6.840;2022-11-21T06:47:46;5.30;99.90
15328;DHT22;7764;51.430;6.840;2022-11-21T06:50:13;5.40;99.90
15328;DHT22;7764;51.430;6.840;2022-11-21T06:52:39;5.40;99.90
15328;DHT22;7764;51.430;6.840;2022-11-21T06:55:08;5.40;99.90
15328;DHT22;7764;51.430;6.840;2022-11-21T06:57:44;5.40;99.90
15328;DHT22;7764;51.430;6.840;2022-11-21T07:00:12;5.40;99.90
15328;DHT22;7764;51.430;6.840;2022-11-21T07:02:40;5.50;99.90
15328;DHT22;7764;51.430;6.840;2022-11-21T07:05:07;5.40;99.90
15328;DHT22;7764;51.430;6.840;2022-11-21T07:07:34;5.40;99.90
15328;DHT22;7764;51.430;6.840;2022-11-21T07:10:01;5.50;99.90
15328;DHT22;7764;51.430;6.840;2022-11-21T07:12:28;5.50;99.90
15328;DHT22;7764;51.430;6.840;2022-11-21T07:15:14;5.40;99.90
15328;DHT22;7764;51.430;6.840;2022-11-21T07:17:41;5.50;99.90
15328;DHT22;7764;51.430;6.840;2022-11-21T07:20:09;5.50;99.90
15328;DHT22;7764;51.430;6.840;2022-11-21T07:22:36;5.60;99.90
15328;DHT22;7764;51.430;6.840;2022-11-21T07:25:04;5.50;99.90
15328;DHT22;7764;51.430;6.840;2022-11-21T07:27:31;5.50;99.90
15328;DHT22;7764;51.430;6.840;2022-11-21T07:29:57;5.50;99.90
15328;DHT22;7764;51.430;6.840;2022-11-21T07:32:26;5.50;99.90
15328;DHT22;7764;51.430;6.840;2022-11-21T07:34:53;5.50;99.90
15328;DHT22;7764;51.430;6.840;2022-11-21T07:37:20;5.60;99.90
15328;DHT22;7764;51.430;6.840;2022-11-21T07:39:47;5.60;99.90
15328;DHT22;7764;51.430;6.840;2022-11-21T07:42:13;5.60;99.90
15328;DHT22;7764;51.430;6.840;2022-11-21T07:44:40;5.60;99.90
15328;DHT22;7764;51.430;6.840;2022-11-21T07:47:07;5.70;99.90
15328;DHT22;7764;51.430;6.840;2022-11-21T07:49:35;5.70;99.90
15328;DHT22;7764;51.430;6.840;2022-11-21T07:52:02;5.80;99.90
15328;DHT22;7764;51.430;6.840;2022-11-21T07:54:29;5.80;99.90
15328;DHT22;7764;51.430;6.840;2022-11-21T07:56:56;5.90;99.90
15328;DHT22;7764;51.430;6.840;2022-11-21T07:59:23;5.90;99.90
15328;DHT22;7764;51.430;6.840;2022-11-21T08:01:50;5.90;99.90
15328;DHT22;7764;51.430;6.840;2022-11-21T08:04:17;5.90;99.90
15328;DHT22;7764;51.430;6.840;2022-11-21T08:06:45;5.90;99.90
15328;DHT22;7764;51.430;6.840;2022-11-21T08:09:12;5.90;99.90
15328;DHT22;7764;51.430;6.840;2022-11-21T08:11:39;6.00;99.90
15328;DHT22;7764;51.430;6.840;2022-11-21T08:14:06;6.00;99.90
15328;DHT22;7764;51.430;6.840;2022-11-21T08:16:33;6.10;99.90
15328;DHT22;7764;51.430;6.840;2022-11-21T08:19:00;6.10;99.90
15328;DHT22;7764;51.430;6.840;2022-11-21T08:21:26;6.10;99.90
15328;DHT22;7764;51.430;6.840;2022-11-21T08:23:55;6.10;99.90
15328;DHT22;7764;51.430;6.840;2022-11-21T08:26:21;6.10;99.90
15328;DHT22;7764;51.430;6.840;2022-11-21T08:28:48;6.20;99.90
15328;DHT22;7764;51.430;6.840;2022-11-21T08:31:15;6.20;99.90
15328;DHT22;7764;51.430;6.840;2022-11-21T08:33:42;6.20;99.90
15328;DHT22;7764;51.430;6.840;2022-11-21T08:36:09;6.20;99.90
15328;DHT22;7764;51.430;6.840;2022-11-21T08:38:36;6.20;99.90
15328;DHT22;7764;51.430;6.840;2022-11-21T08:41:04;6.30;99.90
15328;DHT22;7764;51.430;6.840;2022-11-21T08:43:48;6.30;99.90
15328;DHT22;7764;51.430;6.840;2022-11-21T08:46:15;6.30;99.90
15328;DHT22;7764;51.430;6.840;2022-11-21T08:48:42;6.30;99.90
15328;DHT22;7764;51.430;6.840;2022-11-21T08:51:09;6.40;99.90
15328;DHT22;7764;51.430;6.840;2022-11-21T08:53:36;6.30;99.90
15328;DHT22;7764;51.430;6.840;2022-11-21T08:56:04;6.40;99.90
15328;DHT22;7764;51.430;6.840;2022-11-21T08:58:31;6.50;99.90
15328;DHT22;7764;51.430;6.840;2022-11-21T09:00:58;6.50;99.90
15328;DHT22;7764;51.430;6.840;2022-11-21T09:03:25;6.50;99.90
15328;DHT22;7764;51.430;6.840;2022-11-21T09:05:55;6.60;99.90
15328;DHT22;7764;51.430;6.840;2022-11-21T09:08:22;6.60;99.90
15328;DHT22;7764;51.430;6.840;2022-11-21T09:10:49;6.60;99.90
15328;DHT22;7764;51.430;6.840;2022-11-21T09:13:17;6.70;99.90
15328;DHT22;7764;51.430;6.840;2022-11-21T09:15:44;6.70;99.90
15328;DHT22;7764;51.430;6.840;2022-11-21T09:18:28;6.80;99.90
15328;DHT22;7764;51.430;6.840;2022-11-21T09:20:55;6.80;99.90
15328;DHT22;7764;51.430;6.840;2022-11-21T09:23:22;6.80;99.90
15328;DHT22;7764;51.430;6.840;2022-11-21T09:25:48;6.80;99.90
15328;DHT22;7764;51.430;6.840;2022-11-21T09:28:16;6.90;99.90
15328;DHT22;7764;51.430;6.840;2022-11-21T09:30:43;6.90;99.90
15328;DHT22;7764;51.430;6.840;2022-11-21T09:33:11;6.90;99.90
15328;DHT22;7764;51.430;6.840;2022-11-21T09:35:41;7.00;99.90
15328;DHT22;7764;51.430;6.840;2022-11-21T09:38:08;7.10;99.90
15328;DHT22;7764;51.430;6.840;2022-11-21T09:40:35;7.10;99.90
15328;DHT22;7764;51.430;6.840;2022-11-21T09:43:16;7.20;99.90
15328;DHT22;7764;51.430;6.840;2022-11-21T09:45:47;7.20;99.90
15328;DHT22;7764;51.430;6.840;2022-11-21T09:48:18;7.10;99.90
15328;DHT22;7764;51.430;6.840;2022-11-21T09:50:50;7.20;99.90
15328;DHT22;7764;51.430;6.840;2022-11-21T09:53:20;7.20;99.90
15328;DHT22;7764;51.430;6.840;2022-11-21T09:55:50;7.40;99.90
15328;DHT22;7764;51.430;6.840;2022-11-21T09:58:24;7.50;99.90
15328;DHT22;7764;51.430;6.840;2022-11-21T10:00:57;7.50;99.90
15328;DHT22;7764;51.430;6.840;2022-11-21T10:03:28;7.70;99.90
15328;DHT22;7764;51.430;6.840;2022-11-21T10:05:58;7.80;99.90
15328;DHT22;7764;51.430;6.840;2022-11-21T10:08:33;8.00;99.90
15328;DHT22;7764;51.430;6.840;2022-11-21T10:11:12;8.10;99.90
15328;DHT22;7764;51.430;6.840;2022-11-21T10:13:53;8.20;99.90
15328;DHT22;7764;51.430;6.840;2022-11-21T10:16:27;8.10;99.90
15328;DHT22;7764;51.430;6.840;2022-11-21T10:19:29;8.10;99.90
15328;DHT22;7764;51.430;6.840;2022-11-21T10:22:23;8.00;99.90
15328;DHT22;7764;51.430;6.840;2022-11-21T10:24:55;8.10;99.90
15328;DHT22;7764;51.430;6.840;2022-11-21T10:27:31;8.40;99.90
15328;DHT22;7764;51.430;6.840;2022-11-21T10:30:02;8.40;99.90
15328;DHT22;7764;51.430;6.840;2022-11-21T10:32:35;8.50;99.90
15328;DHT22;7764;51.430;6.840;2022-11-21T10:35:12;8.70;99.90
15328;DHT22;7764;51.430;6.840;2022-11-21T10:37:44;8.70;99.90
15328;DHT22;7764;51.430;6.840;2022-11-21T10:40:25;8.60;99.90
15328;DHT22;7764;51.430;6.840;2022-11-21T10:42:57;8.50;99.90
15328;DHT22;7764;51.430;6.840;2022-11-21T10:45:24;8.60;99.90
15328;DHT22;7764;51.430;6.840;2022-11-21T10:47:52;8.50;99.90
15328;DHT22;7764;51.430;6.840;2022-11-21T10:50:45;8.50;99.90
15328;DHT22;7764;51.430;6.840;2022-11-21T10:53:17;8.50;99.90
15328;DHT22;7764;51.430;6.840;2022-11-21T10:56:04;8.40;99.90
15328;DHT22;7764;51.430;6.840;2022-11-21T10:58:41;8.40;99.90
15328;DHT22;7764;51.430;6.840;2022-11-21T11:01:24;8.50;99.90
15328;DHT22;7764;51.430;6.840;2022-11-21T11:04:06;8.60;99.90
15328;DHT22;7764;51.430;6.840;2022-11-21T11:06:34;8.70;99.90
15328;DHT22;7764;51.430;6.840;2022-11-21T11:09:01;8.70;99.90
15328;DHT22;7764;51.430;6.840;2022-11-21T11:11:29;8.60;99.90
15328;DHT22;7764;51.430;6.840;2022-11-21T11:13:58;8.50;99.90
15328;DHT22;7764;51.430;6.840;2022-11-21T11:16:27;8.70;99.90
15328;DHT22;7764;51.430;6.840;2022-11-21T11:18:57;8.70;99.90
15328;DHT22;7764;51.430;6.840;2022-11-21T11:21:27;8.70;99.90
15328;DHT22;7764;51.430;6.840;2022-11-21T11:24:06;8.70;99.90
15328;DHT22;7764;51.430;6.840;2022-11-21T11:26:50;8.80;99.90
15328;DHT22;7764;51.430;6.840;2022-11-21T11:29:19;8.80;99.90
15328;DHT22;7764;51.430;6.840;2022-11-21T11:31:51;8.80;99.90
15328;DHT22;7764;51.430;6.840;2022-11-21T11:34:19;8.70;99.90
15328;DHT22;7764;51.430;6.840;2022-11-21T11:36:59;8.70;99.90
15328;DHT22;7764;51.430;6.840;2022-11-21T11:39:40;8.70;99.90
15328;DHT22;7764;51.430;6.840;2022-11-21T11:46:02;8.80;99.90
15328;DHT22;7764;51.430;6.840;2022-11-21T11:48:49;8.90;99.90
15328;DHT22;7764;51.430;6.840;2022-11-21T11:51:21;8.80;99.90
15328;DHT22;7764;51.430;6.840;2022-11-21T11:53:54;8.80;99.90
15328;DHT22;7764;51.430;6.840;2022-11-21T11:56:25;8.90;99.90
15328;DHT22;7764;51.430;6.840;2022-11-21T11:58:56;9.00;99.90
15328;DHT22;7764;51.430;6.840;2022-11-21T12:01:31;9.00;99.90
15328;DHT22;7764;51.430;6.840;2022-11-21T12:04:03;9.10;99.90
15328;DHT22;7764;51.430;6.840;2022-11-21T12:06:34;9.10;99.90
15328;DHT22;7764;51.430;6.840;2022-11-21T12:09:13;9.00;99.90
15328;DHT22;7764;51.430;6.840;2022-11-21T12:11:49;8.90;99.90
15328;DHT22;7764;51.430;6.840;2022-11-21T12:14:53;8.80;99.90
15328;DHT22;7764;51.430;6.840;2022-11-21T12:17:44;9.00;99.90
15328;DHT22;7764;51.430;6.840;2022-11-21T12:20:18;9.10;99.90
15328;DHT22;7764;51.430;6.840;2022-11-21T12:22:48;9.10;99.90
15328;DHT22;7764;51.430;6.840;2022-11-21T12:25:23;9.30;99.90
15328;DHT22;7764;51.430;6.840;2022-11-21T12:27:53;9.30;99.90
15328;DHT22;7764;51.430;6.840;2022-11-21T12:30:54;9.40;99.90
15328;DHT22;7764;51.430;6.840;2022-11-21T12:33:25;9.30;99.90
15328;DHT22;7764;51.430;6.840;2022-11-21T12:36:13;9.40;99.90
15328;DHT22;7764;51.430;6.840;2022-11-21T12:39:16;9.40;99.90
15328;DHT22;7764;51.430;6.840;2022-11-21T12:41:50;9.40;99.90
15328;DHT22;7764;51.430;6.840;2022-11-21T12:44:50;9.40;99.90
15328;DHT22;7764;51.430;6.840;2022-11-21T12:47:33;9.60;99.90
15328;DHT22;7764;51.430;6.840;2022-11-21T12:50:28;9.50;99.90
15328;DHT22;7764;51.430;6.840;2022-11-21T12:53:20;9.30;99.90
15328;DHT22;7764;51.430;6.840;2022-11-21T12:56:16;9.30;99.90
15328;DHT22;7764;51.430;6.840;2022-11-21T12:58:47;9.20;99.90
15328;DHT22;7764;51.430;6.840;2022-11-21T13:01:22;9.20;99.90
15328;DHT22;7764;51.430;6.840;2022-11-21T13:03:57;9.10;99.90
15328;DHT22;7764;51.430;6.840;2022-11-21T13:06:33;9.00;99.90
15328;DHT22;7764;51.430;6.840;2022-11-21T13:09:06;8.90;99.90
15328;DHT22;7764;51.430;6.840;2022-11-21T13:11:39;9.00;99.90
15328;DHT22;7764;51.430;6.840;2022-11-21T13:14:34;9.00;99.90
15328;DHT22;7764;51.430;6.840;2022-11-21T13:17:14;9.00;99.90
15328;DHT22;7764;51.430;6.840;2022-11-21T13:19:51;9.10;99.90
15328;DHT22;7764;51.430;6.840;2022-11-21T13:22:48;9.10;99.90
15328;DHT22;7764;51.430;6.840;2022-11-21T13:25:42;9.00;99.90
15328;DHT22;7764;51.430;6.840;2022-11-21T13:28:32;8.90;99.90
15328;DHT22;7764;51.430;6.840;2022-11-21T13:31:02;9.00;99.90
15328;DHT22;7764;51.430;6.840;2022-11-21T13:33:47;8.90;99.90
15328;DHT22;7764;51.430;6.840;2022-11-21T13:36:34;9.00;99.90
15328;DHT22;7764;51.430;6.840;2022-11-21T13:39:25;8.90;99.90
15328;DHT22;7764;51.430;6.840;2022-11-21T13:42:14;8.90;99.90
15328;DHT22;7764;51.430;6.840;2022-11-21T13:51:11;9.00;99.90
15328;DHT22;7764;51.430;6.840;2022-11-21T13:56:39;9.00;99.90
15328;DHT22;7764;51.430;6.840;2022-11-21T13:59:23;9.00;99.90
15328;DHT22;7764;51.430;6.840;2022-11-21T14:02:23;9.10;99.90
15328;DHT22;7764;51.430;6.840;2022-11-21T14:05:17;9.00;99.90
15328;DHT22;7764;51.430;6.840;2022-11-21T14:07:50;9.00;99.90
15328;DHT22;7764;51.430;6.840;2022-11-21T14:10:28;9.00;99.90
15328;DHT22;7764;51.430;6.840;2022-11-21T14:12:57;9.10;99.90
15328;DHT22;7764;51.430;6.840;2022-11-21T14:15:29;9.00;99.90
15328;DHT22;7764;51.430;6.840;2022-11-21T14:17:58;9.00;99.90
15328;DHT22;7764;51.430;6.840;2022-11-21T14:20:28;9.00;99.90
15328;DHT22;7764;51.430;6.840;2022-11-21T14:23:00;9.00;99.90
15328;DHT22;7764;51.430;6.840;2022-11-21T14:25:42;8.90;99.90
15328;DHT22;7764;51.430;6.840;2022-11-21T14:28:12;8.90;99.90
15328;DHT22;7764;51.430;6.840;2022-11-21T14:30:41;8.90;99.90
15328;DHT22;7764;51.430;6.840;2022-11-21T14:33:23;8.90;99.90
15328;DHT22;7764;51.430;6.840;2022-11-21T14:35:52;8.90;99.90
15328;DHT22;7764;51.430;6.840;2022-11-21T14:38:22;8.80;99.90
15328;DHT22;7764;51.430;6.840;2022-11-21T14:40:50;8.80;99.90
15328;DHT22;7764;51.430;6.840;2022-11-21T14:43:31;8.70;99.90
15328;DHT22;7764;51.430;6.840;2022-11-21T14:45:58;8.70;99.90
15328;DHT22;7764;51.430;6.840;2022-11-21T14:48:26;8.70;99.90
15328;DHT22;7764;51.430;6.840;2022-11-21T14:50:55;8.60;99.90
15328;DHT22;7764;51.430;6.840;2022-11-21T14:53:26;8.60;99.90
15328;DHT22;7764;51.430;6.840;2022-11-21T14:55:53;8.50;99.90
15328;DHT22;7764;51.430;6.840;2022-11-21T14:58:21;8.50;99.90
15328;DHT22;7764;51.430;6.840;2022-11-21T15:01:01;8.50;99.90
15328;DHT22;7764;51.430;6.840;2022-11-21T15:03:28;8.40;99.90
15328;DHT22;7764;51.430;6.840;2022-11-21T15:05:58;8.40;99.90
15328;DHT22;7764;51.430;6.840;2022-11-21T15:08:27;8.40;99.90
15328;DHT22;7764;51.430;6.840;2022-11-21T15:10:57;8.30;99.90
15328;DHT22;7764;51.430;6.840;2022-11-21T15:13:28;8.30;99.90
15328;DHT22;7764;51.430;6.840;2022-11-21T15:15:59;8.30;99.90
15328;DHT22;7764;51.430;6.840;2022-11-21T15:18:28;8.20;99.90
15328;DHT22;7764;51.430;6.840;2022-11-21T15:20:57;8.20;99.90
15328;DHT22;7764;51.430;6.840;2022-11-21T15:23:28;8.20;99.90
15328;DHT22;7764;51.430;6.840;2022-11-21T15:25:55;8.20;99.90
15328;DHT22;7764;51.430;6.840;2022-11-21T15:28:23;8.20;99.90
15328;DHT22;7764;51.430;6.840;2022-11-21T15:31:14;8.20;99.90
15328;DHT22;7764;51.430;6.840;2022-11-21T15:33:55;8.20;99.90
15328;DHT22;7764;51.430;6.840;2022-11-21T15:36:23;8.10;99.90
15328;DHT22;7764;51.430;6.840;2022-11-21T15:38:54;8.10;99.90
15328;DHT22;7764;51.430;6.840;2022-11-21T15:41:25;8.10;99.90
15328;DHT22;7764;51.430;6.840;2022-11-21T15:43:53;8.10;99.90
15328;DHT22;7764;51.430;6.840;2022-11-21T15:46:22;8.00;99.90
15328;DHT22;7764;51.430;6.840;2022-11-21T15:48:50;8.00;99.90
15328;DHT22;7764;51.430;6.840;2022-11-21T15:51:18;8.00;99.90
15328;DHT22;7764;51.430;6.840;2022-11-21T15:53:45;8.00;99.90
15328;DHT22;7764;51.430;6.840;2022-11-21T15:56:15;8.00;99.90
15328;DHT22;7764;51.430;6.840;2022-11-21T15:58:43;8.00;99.90
15328;DHT22;7764;51.430;6.840;2022-11-21T16:01:14;8.00;99.90
15328;DHT22;7764;51.430;6.840;2022-11-21T16:03:42;8.00;99.90
15328;DHT22;7764;51.430;6.840;2022-11-21T16:06:09;8.00;99.90
15328;DHT22;7764;51.430;6.840;2022-11-21T16:08:36;8.00;99.90
15328;DHT22;7764;51.430;6.840;2022-11-21T16:11:03;7.90;99.90
15328;DHT22;7764;51.430;6.840;2022-11-21T16:13:31;8.00;99.90
15328;DHT22;7764;51.430;6.840;2022-11-21T16:15:59;7.90;99.90
15328;DHT22;7764;51.430;6.840;2022-11-21T16:18:27;7.90;99.90
15328;DHT22;7764;51.430;6.840;2022-11-21T16:21:03;7.90;99.90
15328;DHT22;7764;51.430;6.840;2022-11-21T16:23:30;7.90;99.90
15328;DHT22;7764;51.430;6.840;2022-11-21T16:25:57;7.90;99.90
15328;DHT22;7764;51.430;6.840;2022-11-21T16:28:24;7.80;99.90
15328;DHT22;7764;51.430;6.840;2022-11-21T16:30:52;7.90;99.90
15328;DHT22;7764;51.430;6.840;2022-11-21T16:33:19;7.80;99.90
15328;DHT22;7764;51.430;6.840;2022-11-21T16:35:46;7.80;99.90
15328;DHT22;7764;51.430;6.840;2022-11-21T16:38:14;7.90;99.90